Terminal Aerodrome Forecast
Issued by NWS

Home | Current Version | Previous Version | Text Only | Print | Product List | Glossary On
Versions: 1 2 3 4 5 6 7 8 9 10 11 12
994
FTUS43 KAPX 190539
TAFTVC
TAF
KTVC 190539Z 1906/2006 23013G21KT P6SM SCT200 WS020/24045KT
     FM190700 24010KT P6SM SCT250
     FM191000 25006KT P6SM FEW250
     FM191700 27010G19KT P6SM SKC
     FM192300 25006KT P6SM FEW250
     FM200400 22005KT P6SM SKC WS020/26030KT=

USA.gov is the U.S. government's official web portal to all federal, state and local government web resources and services.